createdAt,value
2023-05-11T00:00:33.685Z,100840.97
2023-05-11T00:02:38.010Z,100829.50
2023-05-11T00:04:42.069Z,100843.63
2023-05-11T00:06:46.442Z,100840.97
2023-05-11T00:08:52.511Z,100838.31
2023-05-11T00:10:56.746Z,100833.84
2023-05-11T00:13:00.847Z,100829.50
2023-05-11T00:15:05.241Z,100843.63
2023-05-11T00:17:09.630Z,100836.50
2023-05-11T00:19:13.878Z,100832.91
2023-05-11T00:21:18.110Z,100845.22
2023-05-11T00:23:22.208Z,100837.44
2023-05-11T00:25:27.633Z,100835.88
2023-05-11T00:27:31.495Z,100847.53
2023-05-11T00:29:35.678Z,100835.34
2023-05-11T00:31:39.537Z,100839.88
2023-05-11T00:33:43.674Z,100838.09
2023-05-11T00:35:49.531Z,100839.88
2023-05-11T00:37:53.518Z,100841.59
2023-05-11T00:39:57.404Z,100839.88
2023-05-11T00:42:03.969Z,100845.19
2023-05-11T00:44:08.538Z,100850.69
2023-05-11T00:46:12.510Z,100849.94
2023-05-11T00:48:16.785Z,100842.19
2023-05-11T00:50:20.942Z,100853.00
2023-05-11T00:52:25.217Z,100850.56
2023-05-11T00:54:29.400Z,100851.50
2023-05-11T00:56:33.388Z,100849.81
2023-05-11T00:58:39.858Z,100851.81
2023-05-11T01:00:44.873Z,100857.19
2023-05-11T01:02:49.378Z,100856.56
2023-05-11T01:04:53.336Z,100860.16
2023-05-11T01:07:05.922Z,100859.50
2023-05-11T01:09:18.886Z,100859.59
2023-05-11T01:11:31.072Z,100857.06
2023-05-11T01:13:41.099Z,100865.13
2023-05-11T01:15:47.647Z,100868.81
2023-05-11T01:17:57.515Z,100868.81
2023-05-11T01:20:07.473Z,100872.41
2023-05-11T01:22:23.474Z,100867.22
2023-05-11T01:24:39.314Z,100871.66
2023-05-11T01:27:00.813Z,100869.22
2023-05-11T01:29:26.125Z,100866.66
2023-05-11T01:31:32.642Z,100876.31
2023-05-11T01:33:41.014Z,100875.47
2023-05-11T01:35:52.421Z,100878.13
2023-05-11T01:37:58.872Z,100877.34
2023-05-11T01:40:06.168Z,100880.22
2023-05-11T01:42:11.572Z,100882.13
2023-05-11T01:44:18.291Z,100882.13
2023-05-11T01:46:25.390Z,100877.00
2023-05-11T01:48:33.334Z,100887.69
2023-05-11T01:50:39.123Z,100884.19
2023-05-11T01:52:44.134Z,100880.75
2023-05-11T01:54:48.765Z,100879.91
2023-05-11T01:56:54.368Z,100884.38
2023-05-11T01:59:01.072Z,100883.59
2023-05-11T02:01:05.439Z,100882.78
2023-05-11T02:03:11.409Z,100877.75
2023-05-11T02:05:20.874Z,100884.00
2023-05-11T02:07:26.004Z,100889.38
2023-05-11T02:09:33.352Z,100889.38
2023-05-11T02:11:39.536Z,100887.78
2023-05-11T02:13:46.344Z,100889.59
2023-05-11T02:15:54.281Z,100894.03
2023-05-11T02:18:00.286Z,100890.41
2023-05-11T02:20:04.707Z,100894.88
2023-05-11T02:22:12.689Z,100895.72
2023-05-11T02:24:17.390Z,100896.69
2023-05-11T02:26:20.828Z,100895.72
2023-05-11T02:28:24.367Z,100897.44
2023-05-11T02:30:30.319Z,100896.59
2023-05-11T02:32:39.491Z,100895.72
2023-05-11T02:34:44.836Z,100892.22
2023-05-11T02:36:50.477Z,100887.78
2023-05-11T02:39:04.022Z,100894.88
2023-05-11T02:41:14.804Z,100885.06
2023-05-11T02:43:24.684Z,100886.84
2023-05-11T02:45:36.858Z,100890.25
2023-05-11T02:47:47.305Z,100902.56
2023-05-11T02:49:58.643Z,100901.59
2023-05-11T02:52:05.347Z,100903.19
2023-05-11T02:54:15.590Z,100903.19
2023-05-11T02:56:25.776Z,100907.44
2023-05-11T02:58:31.499Z,100912.66
2023-05-11T03:00:48.093Z,100902.81
2023-05-11T03:02:51.697Z,100901.00
2023-05-11T03:04:57.900Z,100909.56
2023-05-11T03:07:01.727Z,100910.31
2023-05-11T03:09:05.837Z,100910.19
2023-05-11T03:11:16.232Z,100905.56
2023-05-11T03:13:24.012Z,100909.94
2023-05-11T03:15:30.556Z,100912.69
2023-05-11T03:17:37.216Z,100907.47
2023-05-11T03:19:43.629Z,100896.94
2023-05-11T03:21:48.969Z,100907.53
2023-05-11T03:23:52.891Z,100906.72
2023-05-11T03:25:56.894Z,100898.75
2023-05-11T03:28:03.037Z,100898.84
2023-05-11T03:30:11.158Z,100899.91
2023-05-11T03:32:19.290Z,100895.44
2023-05-11T03:34:23.527Z,100896.41
2023-05-11T03:36:28.405Z,100898.38
2023-05-11T03:38:33.682Z,100897.53
2023-05-11T03:40:39.628Z,100891.56
2023-05-11T03:42:44.847Z,100900.53
2023-05-11T03:44:51.144Z,100892.81
2023-05-11T03:46:55.825Z,100904.34
2023-05-11T03:49:00.534Z,100905.22
2023-05-11T03:51:06.534Z,100904.34
2023-05-11T03:53:10.396Z,100900.84
2023-05-11T03:55:13.889Z,100899.91
2023-05-11T03:57:17.830Z,100900.84
2023-05-11T03:59:22.668Z,100897.25
2023-05-11T04:01:28.498Z,100891.09
2023-05-11T04:03:32.002Z,100898.09
2023-05-11T04:05:35.761Z,100895.44
2023-05-11T04:07:41.620Z,100900.84
2023-05-11T04:09:44.915Z,100898.09
2023-05-11T04:11:48.793Z,100905.00
2023-05-11T04:13:52.292Z,100905.94
2023-05-11T04:15:55.646Z,100906.78
2023-05-11T04:18:00.525Z,100907.75
2023-05-11T04:20:04.050Z,100914.00
2023-05-11T04:22:07.462Z,100907.84
2023-05-11T04:24:11.002Z,100913.22
2023-05-11T04:26:16.717Z,100910.56
2023-05-11T04:28:20.353Z,100921.16
2023-05-11T04:30:24.537Z,100915.81
2023-05-11T04:32:28.672Z,100918.34
2023-05-11T04:34:35.183Z,100915.72
2023-05-11T04:36:42.322Z,100914.84
2023-05-11T04:38:46.193Z,100918.47
2023-05-11T04:40:50.963Z,100919.19
2023-05-11T04:42:56.406Z,100915.72
2023-05-11T04:45:00.691Z,100918.25
2023-05-11T04:47:05.064Z,100923.34
2023-05-11T04:49:09.702Z,100914.47
2023-05-11T04:51:17.762Z,100920.50
2023-05-11T04:53:22.515Z,100921.38
2023-05-11T04:55:26.833Z,100923.97
2023-05-11T04:57:32.952Z,100921.22
2023-05-11T04:59:38.329Z,100923.00
2023-05-11T05:01:42.288Z,100919.41
2023-05-11T05:03:49.548Z,100927.34
2023-05-11T05:05:55.534Z,100930.97
2023-05-11T05:08:01.212Z,100938.81
2023-05-11T05:10:09.387Z,100930.88
2023-05-11T05:12:13.633Z,100933.31
2023-05-11T05:14:17.802Z,100930.66
2023-05-11T05:16:21.941Z,100942.88
2023-05-11T05:18:26.234Z,100935.75
2023-05-11T05:20:30.003Z,100940.22
2023-05-11T05:22:35.421Z,100934.81
2023-05-11T05:24:41.297Z,100940.13
2023-05-11T05:26:45.928Z,100938.31
2023-05-11T05:28:50.375Z,100942.66
2023-05-11T05:30:56.510Z,100936.44
2023-05-11T05:33:00.934Z,100941.72
2023-05-11T05:35:05.109Z,100941.53
2023-05-11T05:37:08.672Z,100942.38
2023-05-11T05:39:12.914Z,100933.56
2023-05-11T05:41:18.865Z,100936.22
2023-05-11T05:43:23.352Z,100937.84
2023-05-11T05:45:27.411Z,100934.34
2023-05-11T05:47:32.112Z,100937.00
2023-05-11T05:49:36.296Z,100932.53
2023-05-11T05:51:41.845Z,100940.38
2023-05-11T05:53:45.870Z,100935.84
2023-05-11T05:55:50.255Z,100937.53
2023-05-11T05:57:55.544Z,100939.25
2023-05-11T05:59:59.466Z,100935.66
2023-05-11T06:02:03.522Z,100944.34
2023-05-11T06:04:08.451Z,100939.69
2023-05-11T06:06:13.203Z,100946.63
2023-05-11T06:08:17.458Z,100943.97
2023-05-11T06:10:22.016Z,100946.41
2023-05-11T06:12:26.141Z,100950.56
2023-05-11T06:14:33.817Z,100946.66
2023-05-11T06:16:38.943Z,100943.63
2023-05-11T06:18:42.829Z,100946.75
2023-05-11T06:20:47.069Z,100940.19
2023-05-11T06:22:52.335Z,100936.47
2023-05-11T06:24:56.676Z,100943.06
2023-05-11T06:27:01.911Z,100940.75
2023-05-11T06:29:16.697Z,100942.16
2023-05-11T06:31:25.226Z,100943.38
2023-05-11T06:33:29.957Z,100948.25
2023-05-11T06:35:34.008Z,100946.69
2023-05-11T06:37:38.418Z,100949.69
2023-05-11T06:39:42.546Z,100946.22
2023-05-11T06:41:46.429Z,100944.50
2023-05-11T06:43:50.490Z,100950.38
2023-05-11T06:46:06.495Z,100958.16
2023-05-11T06:48:12.061Z,100950.31
2023-05-11T06:50:16.395Z,100958.13
2023-05-11T06:52:20.170Z,100954.59
2023-05-11T06:54:27.143Z,100965.81
2023-05-11T06:56:32.353Z,100965.50
2023-05-11T06:58:36.264Z,100958.69
2023-05-11T07:00:39.991Z,100961.72
2023-05-11T07:02:43.754Z,100962.09
2023-05-11T07:04:49.119Z,100960.34
2023-05-11T07:06:53.141Z,100968.38
2023-05-11T07:08:57.029Z,100964.66
2023-05-11T07:11:01.535Z,100966.16
2023-05-11T07:13:05.610Z,100964.16
2023-05-11T07:15:10.689Z,100960.56
2023-05-11T07:17:14.150Z,100969.41
2023-05-11T07:19:18.118Z,100968.97
2023-05-11T07:21:23.532Z,100971.06
2023-05-11T07:23:27.449Z,100968.63
2023-05-11T07:25:31.206Z,100979.53
2023-05-11T07:27:35.132Z,100978.94
2023-05-11T07:29:38.816Z,100973.06
2023-05-11T07:31:43.161Z,100979.31
2023-05-11T07:33:47.533Z,100984.53
2023-05-11T07:35:52.544Z,100974.66
2023-05-11T07:37:57.771Z,100974.34
2023-05-11T07:40:01.371Z,100973.94
2023-05-11T07:42:05.223Z,100978.13
2023-05-11T07:44:08.866Z,100973.53
2023-05-11T07:46:12.493Z,100976.06
2023-05-11T07:48:16.651Z,100984.91
2023-05-11T07:50:22.929Z,100978.44
2023-05-11T07:52:28.017Z,100984.19
2023-05-11T07:54:33.047Z,100985.34
2023-05-11T07:56:36.714Z,100984.47
2023-05-11T07:58:40.394Z,100989.03
2023-05-11T08:00:44.223Z,100999.88
2023-05-11T08:02:48.104Z,100987.41
2023-05-11T08:04:51.954Z,100990.13
2023-05-11T08:06:56.853Z,100993.09
2023-05-11T08:09:00.651Z,100997.09
2023-05-11T08:11:06.584Z,100998.25
2023-05-11T08:13:10.424Z,100993.94
2023-05-11T08:15:14.533Z,100989.91
2023-05-11T08:17:18.758Z,100990.38
2023-05-11T08:19:22.745Z,100990.06
2023-05-11T08:21:26.826Z,100996.97
2023-05-11T08:23:30.773Z,100999.34
2023-05-11T08:25:35.306Z,100999.16
2023-05-11T08:27:41.319Z,101011.22
2023-05-11T08:29:45.705Z,100999.34
2023-05-11T08:31:50.984Z,101000.94
2023-05-11T08:33:54.850Z,101003.75
2023-05-11T08:35:58.758Z,100998.59
2023-05-11T08:38:02.518Z,100998.78
2023-05-11T08:40:07.036Z,100995.97
2023-05-11T08:42:14.132Z,101005.47
2023-05-11T08:44:20.348Z,101005.28
2023-05-11T08:46:27.538Z,101003.28
2023-05-11T08:48:31.897Z,101002.44
2023-05-11T08:50:36.002Z,100998.19
2023-05-11T08:52:41.019Z,101006.06
2023-05-11T08:54:45.164Z,101000.03
2023-05-11T08:56:51.904Z,101002.19
2023-05-11T08:58:57.630Z,101000.75
2023-05-11T09:01:04.064Z,101013.19
2023-05-11T09:03:08.602Z,101012.41
2023-05-11T09:05:12.978Z,101003.88
2023-05-11T09:07:18.809Z,101005.31
2023-05-11T09:09:23.378Z,101007.53
2023-05-11T09:11:28.020Z,100997.03
2023-05-11T09:13:32.542Z,100998.56
2023-05-11T09:15:38.297Z,100998.09
2023-05-11T09:17:43.921Z,100998.34
2023-05-11T09:20:01.364Z,100998.47
2023-05-11T09:22:07.975Z,101000.75
2023-05-11T09:24:14.449Z,100996.75
2023-05-11T09:26:18.457Z,100994.34
2023-05-11T09:28:26.956Z,101005.00
2023-05-11T09:30:31.230Z,101005.84
2023-05-11T09:32:50.656Z,101005.56
2023-05-11T09:34:54.594Z,101009.75
2023-05-11T09:36:58.625Z,101014.78
2023-05-11T09:39:04.052Z,101012.28
2023-05-11T09:41:08.525Z,101011.25
2023-05-11T09:43:18.832Z,101018.94
2023-05-11T09:45:42.242Z,101019.38
2023-05-11T09:47:47.630Z,101007.59
2023-05-11T09:49:54.042Z,101007.25
2023-05-11T09:52:02.669Z,100999.34
2023-05-11T09:54:18.603Z,101004.94
2023-05-11T09:56:22.310Z,101003.03
2023-05-11T09:58:26.237Z,100994.81
2023-05-11T10:00:30.024Z,100991.78
2023-05-11T10:02:34.736Z,100997.28
2023-05-11T10:04:38.735Z,100989.28
2023-05-11T10:06:49.146Z,100996.53
2023-05-11T10:08:52.942Z,100998.19
2023-05-11T10:10:58.890Z,100994.28
2023-05-11T10:13:04.435Z,101004.41
2023-05-11T10:15:10.259Z,101003.28
2023-05-11T10:17:16.003Z,101004.50
2023-05-11T10:19:21.072Z,101003.69
2023-05-11T10:21:24.975Z,101010.44
2023-05-11T10:23:33.913Z,101008.84
2023-05-11T10:25:37.624Z,101011.06
2023-05-11T10:27:41.906Z,101015.09
2023-05-11T10:29:45.906Z,101013.16
2023-05-11T10:31:51.942Z,101007.22
2023-05-11T10:33:57.448Z,101003.69
2023-05-11T10:36:01.673Z,100999.97
2023-05-11T10:38:06.879Z,100997.19
2023-05-11T10:40:12.908Z,100992.50
2023-05-11T10:42:39.712Z,100989.28
2023-05-11T10:45:01.943Z,100988.13
2023-05-11T10:47:22.998Z,100990.38
2023-05-11T10:49:44.535Z,100992.59
2023-05-11T10:52:03.631Z,100990.09
2023-05-11T10:54:22.692Z,100993.88
2023-05-11T10:56:42.511Z,100992.91
2023-05-11T10:59:05.374Z,100990.91
2023-05-11T11:01:28.243Z,100985.81
2023-05-11T11:03:32.930Z,100987.72
2023-05-11T11:05:38.285Z,100991.19
2023-05-11T11:08:04.240Z,101002.09
2023-05-11T11:10:10.234Z,101003.56
2023-05-11T11:12:16.170Z,101005.00
2023-05-11T11:14:20.359Z,101008.13
2023-05-11T11:16:26.244Z,101014.13
2023-05-11T11:18:30.944Z,101022.09
2023-05-11T11:20:51.050Z,101026.66
2023-05-11T11:22:54.636Z,101018.75
2023-05-11T11:24:58.280Z,101015.50
2023-05-11T11:27:01.907Z,101024.69
2023-05-11T11:29:13.557Z,101024.13
2023-05-11T11:31:27.839Z,101010.97
2023-05-11T11:33:35.142Z,101014.41
2023-05-11T11:35:49.036Z,101012.84
2023-05-11T11:38:02.341Z,101007.19
2023-05-11T11:40:14.605Z,101002.44
2023-05-11T11:42:20.637Z,101017.63
2023-05-11T11:44:25.886Z,101011.59
2023-05-11T11:46:30.686Z,101018.69
2023-05-11T11:48:35.861Z,101024.22
2023-05-11T11:50:41.673Z,101024.34
2023-05-11T11:52:45.231Z,101035.94
2023-05-11T11:54:49.094Z,101032.53
2023-05-11T11:56:52.681Z,101035.50
2023-05-11T11:59:00.534Z,101035.72
2023-05-11T12:01:05.786Z,101043.81
2023-05-11T12:03:11.721Z,101043.81
2023-05-11T12:05:18.702Z,101048.06
2023-05-11T12:07:23.069Z,101045.28
2023-05-11T12:09:27.047Z,101045.06
2023-05-11T12:11:31.500Z,101052.84
2023-05-11T12:13:36.713Z,101051.75
2023-05-11T12:15:40.314Z,101051.03
2023-05-11T12:17:45.425Z,101051.16
2023-05-11T12:19:48.991Z,101046.91
2023-05-11T12:21:52.593Z,101047.94
2023-05-11T12:23:57.515Z,101055.38
2023-05-11T12:26:05.008Z,101057.41
2023-05-11T12:28:09.615Z,101054.09
2023-05-11T12:30:22.257Z,101057.94
2023-05-11T12:32:30.727Z,101050.69
2023-05-11T12:34:36.575Z,101052.28
2023-05-11T12:36:41.390Z,101055.28
2023-05-11T12:38:46.310Z,101051.88
2023-05-11T12:40:53.780Z,101052.00
2023-05-11T12:42:59.142Z,101062.75
2023-05-11T12:45:03.387Z,101058.47
2023-05-11T12:47:07.647Z,101061.41
2023-05-11T12:49:14.097Z,101059.28
2023-05-11T12:51:50.829Z,101050.88
2023-05-11T12:53:55.048Z,101060.13
2023-05-11T12:56:02.203Z,101057.13
2023-05-11T12:58:10.127Z,101064.78
2023-05-11T13:00:15.920Z,101066.50
2023-05-11T13:02:21.962Z,101066.50
2023-05-11T13:04:33.095Z,101067.78
2023-05-11T13:06:36.745Z,101071.19
2023-05-11T13:08:47.140Z,101071.41
2023-05-11T13:10:51.519Z,101074.31
2023-05-11T13:12:56.428Z,101075.38
2023-05-11T13:15:13.019Z,101074.94
2023-05-11T13:17:31.578Z,101080.59
2023-05-11T13:19:35.614Z,101076.56
2023-05-11T13:21:39.542Z,101078.81
2023-05-11T13:23:50.740Z,101071.22
2023-05-11T13:25:55.363Z,101073.34
2023-05-11T13:27:59.168Z,101066.34
2023-05-11T13:30:02.880Z,101065.50
2023-05-11T13:32:07.374Z,101068.16
2023-05-11T13:34:12.062Z,101077.94
2023-05-11T13:36:15.702Z,101075.41
2023-05-11T13:38:19.776Z,101072.75
2023-05-11T13:40:25.600Z,101078.38
2023-05-11T13:42:30.369Z,101073.25
2023-05-11T13:44:34.244Z,101074.00
2023-05-11T13:46:38.583Z,101076.44
2023-05-11T13:48:42.154Z,101079.47
2023-05-11T13:50:45.565Z,101075.56
2023-05-11T13:52:48.846Z,101078.97
2023-05-11T13:54:52.306Z,101081.72
2023-05-11T13:56:57.894Z,101087.44
2023-05-11T13:59:01.404Z,101088.69
2023-05-11T14:01:08.323Z,101078.53
2023-05-11T14:03:12.569Z,101078.19
2023-05-11T14:05:16.384Z,101090.53
2023-05-11T14:07:19.896Z,101084.59
2023-05-11T14:09:24.413Z,101098.66
2023-05-11T14:11:29.488Z,101101.41
2023-05-11T14:13:34.401Z,101105.19
2023-05-11T14:15:38.666Z,101103.78
2023-05-11T14:17:43.419Z,101100.41
2023-05-11T14:19:47.633Z,101097.84
2023-05-11T14:21:51.273Z,101099.44
2023-05-11T14:24:09.794Z,101108.16
2023-05-11T14:26:14.297Z,101105.53
2023-05-11T14:28:18.189Z,101107.50
2023-05-11T14:30:23.220Z,101112.94
2023-05-11T14:32:27.638Z,101115.53
2023-05-11T14:34:31.593Z,101105.91
2023-05-11T14:36:35.637Z,101108.72
2023-05-11T14:38:39.201Z,101109.69
2023-05-11T14:40:42.971Z,101114.31
2023-05-11T14:42:47.050Z,101118.50
2023-05-11T14:44:51.136Z,101125.16
2023-05-11T14:46:56.405Z,101125.00
2023-05-11T14:49:07.109Z,101127.94
2023-05-11T14:51:10.588Z,101124.31
2023-05-11T14:53:14.019Z,101126.75
2023-05-11T14:55:17.792Z,101128.25
2023-05-11T14:57:21.709Z,101125.00
2023-05-11T14:59:25.602Z,101124.78
2023-05-11T15:01:29.052Z,101122.84
2023-05-11T15:03:34.487Z,101134.34
2023-05-11T15:05:38.333Z,101132.25
2023-05-11T15:07:42.038Z,101128.34
2023-05-11T15:09:46.294Z,101129.94
2023-05-11T15:11:50.214Z,101136.03
2023-05-11T15:13:53.984Z,101141.28
2023-05-11T15:15:58.636Z,101138.25
2023-05-11T15:18:02.160Z,101145.13
2023-05-11T15:20:08.748Z,101147.94
2023-05-11T15:22:12.725Z,101154.06
2023-05-11T15:24:17.279Z,101155.53
2023-05-11T15:26:21.832Z,101150.56
2023-05-11T15:28:26.238Z,101165.06
2023-05-11T15:30:32.528Z,101168.69
2023-05-11T15:32:37.008Z,101171.97
2023-05-11T15:34:54.975Z,101171.25
2023-05-11T15:37:03.968Z,101165.28
2023-05-11T15:39:07.985Z,101167.97
2023-05-11T15:41:11.529Z,101169.84
2023-05-11T15:43:14.994Z,101179.56
2023-05-11T15:45:18.862Z,101179.97
2023-05-11T15:47:22.461Z,101173.91
2023-05-11T15:49:25.873Z,101177.63
2023-05-11T15:51:29.426Z,101181.22
2023-05-11T15:53:34.186Z,101172.75
2023-05-11T15:55:39.178Z,101176.88
2023-05-11T15:57:42.646Z,101179.75
2023-05-11T15:59:46.672Z,101182.50
2023-05-11T16:01:50.360Z,101191.66
2023-05-11T16:03:53.772Z,101186.34
2023-05-11T16:05:57.184Z,101188.66
2023-05-11T16:08:00.620Z,101189.09
2023-05-11T16:10:06.788Z,101202.50
2023-05-11T16:12:11.822Z,101209.72
2023-05-11T16:14:16.027Z,101211.22
2023-05-11T16:16:20.226Z,101209.31
2023-05-11T16:18:24.125Z,101209.22
2023-05-11T16:20:27.921Z,101225.56
2023-05-11T16:22:32.649Z,101222.16
2023-05-11T16:24:36.235Z,101231.94
2023-05-11T16:26:41.384Z,101237.91
2023-05-11T16:28:45.347Z,101244.19
2023-05-11T16:30:49.045Z,101246.09
2023-05-11T16:32:53.593Z,101249.50
2023-05-11T16:34:57.414Z,101250.25
2023-05-11T16:37:01.218Z,101253.88
2023-05-11T16:39:06.559Z,101263.94
2023-05-11T16:41:11.592Z,101259.56
2023-05-11T16:43:16.838Z,101272.41
2023-05-11T16:45:21.115Z,101273.09
2023-05-11T16:47:25.610Z,101285.53
2023-05-11T16:49:30.036Z,101287.88
2023-05-11T16:51:34.527Z,101293.97
2023-05-11T16:53:38.431Z,101295.47
2023-05-11T16:55:42.662Z,101307.78
2023-05-11T16:57:46.372Z,101307.03
2023-05-11T16:59:51.963Z,101304.78
2023-05-11T17:01:55.582Z,101312.41
2023-05-11T17:04:00.022Z,101317.25
2023-05-11T17:06:03.949Z,101323.81
2023-05-11T17:08:07.958Z,101328.41
2023-05-11T17:10:12.620Z,101329.16
2023-05-11T17:12:16.333Z,101338.63
2023-05-11T17:14:19.965Z,101340.25
2023-05-11T17:16:25.315Z,101341.84
2023-05-11T17:18:29.604Z,101344.31
2023-05-11T17:20:33.634Z,101347.38
2023-05-11T17:22:37.754Z,101353.06
2023-05-11T17:24:42.103Z,101355.34
2023-05-11T17:26:48.295Z,101357.38
2023-05-11T17:28:52.800Z,101364.38
2023-05-11T17:30:56.699Z,101371.50
2023-05-11T17:33:02.327Z,101370.72
2023-05-11T17:35:08.461Z,101372.66
2023-05-11T17:37:23.728Z,101365.41
2023-05-11T17:39:36.073Z,101379.47
2023-05-11T17:41:39.949Z,101377.50
2023-05-11T17:43:43.487Z,101383.53
2023-05-11T17:45:47.229Z,101395.91
2023-05-11T17:47:50.851Z,101396.72
2023-05-11T17:49:56.328Z,101389.63
2023-05-11T17:52:00.178Z,101397.59
2023-05-11T17:54:04.039Z,101401.78
2023-05-11T17:56:10.094Z,101406.31
2023-05-11T17:58:13.848Z,101403.78
2023-05-11T18:00:18.755Z,101416.13
2023-05-11T18:02:23.308Z,101422.47
2023-05-11T18:04:27.414Z,101432.91
2023-05-11T18:06:34.869Z,101427.22
2023-05-11T18:08:38.595Z,101429.78
2023-05-11T18:10:42.835Z,101437.19
2023-05-11T18:12:47.744Z,101442.69
2023-05-11T18:14:53.100Z,101445.44
2023-05-11T18:16:58.118Z,101447.91
2023-05-11T18:19:03.657Z,101451.78
2023-05-11T18:21:10.953Z,101466.19
2023-05-11T18:23:16.618Z,101469.03
2023-05-11T18:25:21.677Z,101474.53
2023-05-11T18:27:26.205Z,101482.50
2023-05-11T18:29:30.760Z,101481.53
2023-05-11T18:31:34.582Z,101484.03
2023-05-11T18:33:38.429Z,101488.47
2023-05-11T18:35:42.447Z,101493.03
2023-05-11T18:37:46.053Z,101496.94
2023-05-11T18:39:51.370Z,101502.31
2023-05-11T18:41:55.171Z,101513.22
2023-05-11T18:43:59.044Z,101509.03
2023-05-11T18:46:02.740Z,101511.88
2023-05-11T18:48:07.006Z,101513.66
2023-05-11T18:50:11.811Z,101513.94
2023-05-11T18:52:15.386Z,101521.16
2023-05-11T18:54:19.308Z,101511.66
2023-05-11T18:56:24.379Z,101524.16
2023-05-11T18:58:27.952Z,101538.38
2023-05-11T19:00:37.180Z,101535.63
2023-05-11T19:02:41.405Z,101537.25
2023-05-11T19:04:45.222Z,101549.41
2023-05-11T19:06:49.160Z,101558.75
2023-05-11T19:08:53.893Z,101558.03
2023-05-11T19:10:59.137Z,101562.13
2023-05-11T19:13:04.357Z,101564.09
2023-05-11T19:15:10.061Z,101569.59
2023-05-11T19:17:13.861Z,101571.06
2023-05-11T19:19:17.819Z,101573.31
2023-05-11T19:21:22.594Z,101578.81
2023-05-11T19:23:26.237Z,101581.97
2023-05-11T19:25:29.855Z,101590.97
2023-05-11T19:27:33.513Z,101591.06
2023-05-11T19:29:38.905Z,101587.75
2023-05-11T19:31:42.910Z,101596.13
2023-05-11T19:33:46.662Z,101608.81
2023-05-11T19:35:50.181Z,101611.66
2023-05-11T19:37:54.137Z,101621.41
2023-05-11T19:40:13.533Z,101622.53
2023-05-11T19:42:35.708Z,101620.03
2023-05-11T19:44:44.718Z,101625.41
2023-05-11T19:46:48.436Z,101629.00
2023-05-11T19:48:52.141Z,101636.31
2023-05-11T19:50:55.793Z,101634.66
2023-05-11T19:52:59.704Z,101636.53
2023-05-11T19:55:04.061Z,101637.63
2023-05-11T19:57:08.013Z,101641.25
2023-05-11T19:59:11.719Z,101659.97
2023-05-11T20:01:17.090Z,101661.00
2023-05-11T20:03:21.604Z,101655.69
2023-05-11T20:05:25.736Z,101666.25
2023-05-11T20:07:29.932Z,101667.34
2023-05-11T20:09:34.084Z,101674.69
2023-05-11T20:11:38.757Z,101671.41
2023-05-11T20:13:44.483Z,101675.88
2023-05-11T20:15:49.046Z,101677.47
2023-05-11T20:17:54.310Z,101678.25
2023-05-11T20:19:58.687Z,101690.81
2023-05-11T20:22:03.426Z,101702.41
2023-05-11T20:24:07.974Z,101696.22
2023-05-11T20:26:12.116Z,101697.84
2023-05-11T20:28:16.280Z,101695.81
2023-05-11T20:30:20.679Z,101706.03
2023-05-11T20:32:24.830Z,101701.66
2023-05-11T20:34:31.015Z,101702.59
2023-05-11T20:36:35.627Z,101710.63
2023-05-11T20:38:39.746Z,101714.41
2023-05-11T20:40:44.964Z,101711.75
2023-05-11T20:42:49.459Z,101716.78
2023-05-11T20:44:54.456Z,101717.66
2023-05-11T20:46:59.351Z,101728.28
2023-05-11T20:49:03.822Z,101721.16
2023-05-11T20:51:10.019Z,101725.72
2023-05-11T20:53:15.785Z,101732.03
2023-05-11T20:55:20.787Z,101740.06
2023-05-11T20:57:25.895Z,101737.41
2023-05-11T21:01:39.690Z,101747.06
2023-05-11T21:03:43.771Z,101744.50
2023-05-11T21:05:47.871Z,101751.69
2023-05-11T21:07:53.751Z,101752.78
2023-05-11T21:09:58.034Z,101753.56
2023-05-11T21:12:02.535Z,101757.00
2023-05-11T21:14:07.081Z,101756.00
2023-05-11T21:16:11.009Z,101760.34
2023-05-11T21:18:16.113Z,101757.69
2023-05-11T21:20:22.020Z,101763.88
2023-05-11T21:22:26.665Z,101755.03
2023-05-11T21:24:32.925Z,101768.28
2023-05-11T21:26:36.645Z,101759.56
2023-05-11T21:28:40.912Z,101764.09
2023-05-11T21:30:44.659Z,101764.16
2023-05-11T21:32:50.784Z,101770.50
2023-05-11T21:34:54.905Z,101768.94
2023-05-11T21:36:59.927Z,101771.75
2023-05-11T21:39:05.069Z,101779.88
2023-05-11T21:41:11.409Z,101785.31
2023-05-11T21:43:15.318Z,101790.00
2023-05-11T21:45:20.099Z,101788.44
2023-05-11T21:47:23.718Z,101793.03
2023-05-11T21:49:27.382Z,101797.69
2023-05-11T21:51:31.445Z,101801.34
2023-05-11T21:53:35.671Z,101812.13
2023-05-11T21:55:39.811Z,101817.50
2023-05-11T21:57:45.185Z,101816.78
2023-05-11T21:59:50.580Z,101822.16
2023-05-11T22:01:57.366Z,101816.16
2023-05-11T22:04:01.631Z,101814.44
2023-05-11T22:06:06.295Z,101821.56
2023-05-11T22:08:14.913Z,101826.09
2023-05-11T22:10:19.929Z,101833.31
2023-05-11T22:12:23.866Z,101836.13
2023-05-11T22:14:29.320Z,101833.63
2023-05-11T22:16:33.558Z,101837.38
2023-05-11T22:18:40.654Z,101838.28
2023-05-11T22:20:46.583Z,101841.00
2023-05-11T22:22:50.330Z,101842.88
2023-05-11T22:24:54.643Z,101846.44
2023-05-11T22:26:59.568Z,101855.41
2023-05-11T22:29:03.511Z,101855.47
2023-05-11T22:31:09.392Z,101853.75
2023-05-11T22:33:13.851Z,101864.38
2023-05-11T22:35:17.999Z,101859.19
2023-05-11T22:37:22.485Z,101865.50
2023-05-11T22:39:26.320Z,101865.63
2023-05-11T22:41:30.646Z,101872.81
2023-05-11T22:43:34.448Z,101877.38
2023-05-11T22:45:38.740Z,101881.09
2023-05-11T22:47:43.969Z,101878.59
2023-05-11T22:49:48.311Z,101886.69
2023-05-11T22:51:52.924Z,101887.75
2023-05-11T22:53:56.748Z,101886.94
2023-05-11T22:56:04.323Z,101894.13
2023-05-11T22:58:08.300Z,101892.38
2023-05-11T23:00:13.697Z,101898.53
2023-05-11T23:02:17.509Z,101895.81
2023-05-11T23:04:22.975Z,101907.22
2023-05-11T23:06:27.021Z,101898.34
2023-05-11T23:08:30.874Z,101902.69
2023-05-11T23:10:34.590Z,101899.19
2023-05-11T23:12:38.111Z,101903.66
2023-05-11T23:14:42.045Z,101906.28
2023-05-11T23:16:45.684Z,101914.28
2023-05-11T23:18:49.363Z,101904.72
2023-05-11T23:20:58.551Z,101914.50
2023-05-11T23:23:02.276Z,101915.41
2023-05-11T23:25:06.317Z,101909.41
2023-05-11T23:27:10.036Z,101907.69
2023-05-11T23:29:13.948Z,101910.41
2023-05-11T23:31:18.206Z,101911.41
2023-05-11T23:33:22.161Z,101922.13
2023-05-11T23:35:25.785Z,101924.78
2023-05-11T23:37:34.051Z,101930.16
2023-05-11T23:39:38.629Z,101929.41
2023-05-11T23:41:42.473Z,101935.69
2023-05-11T23:43:46.127Z,101944.53
2023-05-11T23:45:50.077Z,101941.13
2023-05-11T23:47:53.942Z,101947.34
2023-05-11T23:49:57.682Z,101948.25
2023-05-11T23:52:01.397Z,101954.44
2023-05-11T23:54:06.866Z,101952.78
2023-05-11T23:56:10.757Z,101957.25